Time;durP1;ratioP1;P1;durP2;ratioP2;P2;SDS_P1;SDS_P2;PMS_P1;PMS_P2;Temp;Humidity;BMP_temperature;BMP_pressure;BME280_temperature;BME280_humidity;BME280_pressure;Samples;Min_cycle;Max_cycle;Signal;HPM_P1;HPM_P2
2022/08/30 00:01:07;;;;;;;4.40;2.80;;;15.60;99.90;;;;;;5072967;28;20047;-68
2022/08/30 00:03:45;;;;;;;3.75;2.35;;;15.60;99.90;;;;;;5072918;28;20048;-68
2022/08/30 00:06:13;;;;;;;3.50;2.50;;;15.60;99.90;;;;;;5072359;28;20048;-68
2022/08/30 00:08:40;;;;;;;4.05;2.90;;;15.60;99.90;;;;;;5069858;28;20097;-68
2022/08/30 00:11:09;;;;;;;3.20;2.47;;;15.60;99.90;;;;;;5072341;28;20055;-68
2022/08/30 00:13:36;;;;;;;3.60;2.40;;;15.60;99.90;;;;;;5072461;28;20048;-68
2022/08/30 00:16:02;;;;;;;3.92;2.50;;;15.70;99.90;;;;;;5072035;28;20358;-68
2022/08/30 00:18:28;;;;;;;3.60;2.80;;;15.70;99.90;;;;;;5072379;28;20087;-68
2022/08/30 00:20:54;;;;;;;3.58;2.35;;;15.70;99.90;;;;;;5072214;28;20131;-68
2022/08/30 00:23:21;;;;;;;3.30;2.50;;;15.70;99.90;;;;;;5072287;28;20101;-68
2022/08/30 00:25:47;;;;;;;3.88;2.55;;;15.60;99.90;;;;;;5072122;28;20137;-68
2022/08/30 00:28:13;;;;;;;3.97;2.63;;;15.60;99.90;;;;;;5070880;28;20151;-68
2022/08/30 00:30:40;;;;;;;3.95;2.50;;;15.60;99.90;;;;;;5072235;28;20052;-68
2022/08/30 00:33:06;;;;;;;3.30;2.78;;;15.60;99.90;;;;;;5071738;28;20082;-68
2022/08/30 00:35:32;;;;;;;3.38;2.58;;;15.60;99.90;;;;;;5071641;28;20076;-68
2022/08/30 00:37:58;;;;;;;3.70;2.50;;;15.60;99.90;;;;;;5071966;28;20040;-68
2022/08/30 00:40:25;;;;;;;4.97;3.20;;;15.60;99.90;;;;;;5071177;28;20377;-67
2022/08/30 00:42:51;;;;;;;5.63;2.60;;;15.50;99.90;;;;;;5071826;28;20037;-68
2022/08/30 00:45:23;;;;;;;3.53;2.53;;;15.60;99.90;;;;;;5071730;28;20369;-68
2022/08/30 00:47:50;;;;;;;4.18;2.28;;;15.50;99.90;;;;;;5071698;28;20040;-68
2022/08/30 00:50:19;;;;;;;4.45;2.72;;;15.50;99.90;;;;;;5070655;28;20059;-68
2022/08/30 00:52:47;;;;;;;4.22;2.80;;;15.50;99.90;;;;;;5071762;28;20447;-68
2022/08/30 00:55:15;;;;;;;3.70;2.33;;;15.50;99.90;;;;;;5070312;28;20068;-68
2022/08/30 00:57:45;;;;;;;4.43;2.65;;;15.40;99.90;;;;;;5071444;28;20486;-68
2022/08/30 01:00:12;;;;;;;3.45;2.33;;;15.50;99.90;;;;;;5070346;28;20526;-68
2022/08/30 01:02:38;;;;;;;3.05;2.30;;;15.40;99.90;;;;;;5071192;28;20516;-68
2022/08/30 01:05:05;;;;;;;3.78;2.70;;;15.40;99.90;;;;;;5071716;28;20051;-68
2022/08/30 01:07:33;;;;;;;3.15;2.83;;;15.40;99.90;;;;;;5071706;28;20040;-68
2022/08/30 01:10:01;;;;;;;4.00;2.53;;;15.40;99.90;;;;;;5071166;28;20049;-68
2022/08/30 01:12:28;;;;;;;3.38;2.50;;;15.40;99.90;;;;;;5069880;28;20348;-68
2022/08/30 01:14:54;;;;;;;3.80;2.63;;;15.30;99.90;;;;;;5070964;28;20115;-68
2022/08/30 01:17:20;;;;;;;3.70;2.35;;;15.30;99.90;;;;;;5071451;28;20049;-67
2022/08/30 01:19:57;;;;;;;3.60;2.63;;;15.20;99.90;;;;;;5071329;28;20123;-68
2022/08/30 01:22:37;;;;;;;3.90;2.55;;;15.20;99.90;;;;;;5051496;28;20040;-68
2022/08/30 01:25:05;;;;;;;3.28;2.45;;;15.20;99.90;;;;;;5060824;28;20531;-68
2022/08/30 01:27:33;;;;;;;3.75;2.88;;;15.20;99.90;;;;;;5071350;28;20051;-68
2022/08/30 01:30:00;;;;;;;4.72;2.90;;;15.20;99.90;;;;;;5071194;28;20119;-68
2022/08/30 01:32:28;;;;;;;4.07;2.70;;;15.20;99.90;;;;;;5071212;28;20040;-68
2022/08/30 01:34:54;;;;;;;4.25;2.90;;;15.20;99.90;;;;;;5071256;28;20449;-68
2022/08/30 01:37:31;;;;;;;3.45;2.67;;;15.10;99.90;;;;;;5069732;28;20378;-68
2022/08/30 01:39:58;;;;;;;3.80;2.75;;;15.00;99.90;;;;;;5070725;28;20045;-68
2022/08/30 01:42:23;;;;;;;4.18;2.67;;;15.10;99.90;;;;;;5071046;28;20047;-68
2022/08/30 01:44:49;;;;;;;3.45;2.95;;;15.00;99.90;;;;;;5071252;28;20435;-68
2022/08/30 01:47:17;;;;;;;2.88;2.22;;;15.00;99.90;;;;;;5071207;28;20105;-68
2022/08/30 01:49:44;;;;;;;3.22;2.80;;;15.00;99.90;;;;;;5070988;28;20089;-68
2022/08/30 01:52:10;;;;;;;4.80;2.80;;;14.90;99.90;;;;;;5073249;28;20464;-68
2022/08/30 01:54:38;;;;;;;3.55;2.53;;;14.90;99.90;;;;;;5075195;28;20102;-69
2022/08/30 01:57:05;;;;;;;3.70;2.80;;;14.90;99.90;;;;;;5074941;28;20095;-68
2022/08/30 01:59:32;;;;;;;3.60;2.60;;;14.90;99.90;;;;;;5075049;28;20044;-68
2022/08/30 02:01:57;;;;;;;3.78;2.80;;;14.80;99.90;;;;;;5074807;28;20048;-68
2022/08/30 02:04:25;;;;;;;4.32;3.10;;;14.80;99.90;;;;;;5074645;28;20055;-68
2022/08/30 02:06:52;;;;;;;3.63;2.83;;;14.80;99.90;;;;;;5074886;28;20119;-68
2022/08/30 02:09:18;;;;;;;3.80;2.80;;;14.70;99.90;;;;;;5073492;28;20477;-68
2022/08/30 02:11:44;;;;;;;4.03;3.25;;;14.70;99.90;;;;;;5073653;28;20048;-68
2022/08/30 02:14:10;;;;;;;3.35;2.78;;;14.70;99.90;;;;;;5074429;28;20516;-68
2022/08/30 02:16:36;;;;;;;3.30;2.40;;;14.60;99.90;;;;;;5074419;28;20036;-68
2022/08/30 02:19:02;;;;;;;3.53;2.70;;;14.60;99.90;;;;;;5074341;28;20480;-68
2022/08/30 02:21:29;;;;;;;3.70;2.83;;;14.50;99.90;;;;;;5074191;28;20477;-68
2022/08/30 02:23:55;;;;;;;3.30;2.90;;;14.50;99.90;;;;;;5074287;28;20570;-68
2022/08/30 02:26:21;;;;;;;3.08;2.42;;;14.40;99.90;;;;;;5073629;28;20049;-68
2022/08/30 02:28:47;;;;;;;3.63;2.85;;;14.40;99.90;;;;;;5073350;28;20088;-68
2022/08/30 02:31:13;;;;;;;3.53;2.50;;;14.40;99.90;;;;;;5074417;28;20044;-68
2022/08/30 02:33:39;;;;;;;4.88;3.40;;;14.40;99.90;;;;;;5074368;28;20043;-68
2022/08/30 02:36:06;;;;;;;4.03;2.95;;;14.40;99.90;;;;;;5074117;28;20381;-68
2022/08/30 02:38:32;;;;;;;3.65;2.90;;;14.30;99.90;;;;;;5074372;28;20052;-68
2022/08/30 02:40:58;;;;;;;6.00;3.13;;;14.30;99.90;;;;;;5072837;28;20100;-67
2022/08/30 02:43:25;;;;;;;3.45;2.80;;;14.30;99.90;;;;;;5074299;28;20069;-68
2022/08/30 02:45:52;;;;;;;4.00;2.78;;;14.30;99.90;;;;;;5074421;28;20124;-67
2022/08/30 02:48:17;;;;;;;3.88;2.63;;;14.30;99.90;;;;;;5074132;28;20045;-68
2022/08/30 02:50:46;;;;;;;3.38;2.83;;;14.20;99.90;;;;;;5073887;28;20346;-68
2022/08/30 02:53:12;;;;;;;3.90;3.10;;;14.20;99.90;;;;;;5073749;28;20085;-68
2022/08/30 02:55:38;;;;;;;4.03;3.03;;;14.20;99.90;;;;;;5073798;28;20049;-68
2022/08/30 02:58:04;;;;;;;3.78;2.72;;;14.10;99.90;;;;;;5073759;28;20374;-68
2022/08/30 03:00:30;;;;;;;4.40;3.22;;;14.20;99.90;;;;;;5072632;28;20044;-68
2022/08/30 03:02:56;;;;;;;3.90;3.17;;;14.00;99.90;;;;;;5073593;28;20098;-68
2022/08/30 03:05:22;;;;;;;4.35;3.05;;;14.10;99.90;;;;;;5072728;28;20131;-68
2022/08/30 03:07:47;;;;;;;4.28;3.35;;;14.10;99.90;;;;;;5073825;28;20044;-68
2022/08/30 03:10:15;;;;;;;5.57;3.33;;;14.10;99.90;;;;;;5073326;28;20420;-67
2022/08/30 03:12:41;;;;;;;4.57;3.53;;;14.10;99.90;;;;;;5073653;28;20052;-68
2022/08/30 03:15:13;;;;;;;4.10;3.10;;;14.10;99.90;;;;;;5072433;28;20366;-68
2022/08/30 03:17:40;;;;;;;4.70;3.42;;;14.10;99.90;;;;;;5072511;28;20106;-67
2022/08/30 03:20:06;;;;;;;4.13;3.20;;;14.10;99.90;;;;;;5073301;28;20431;-68
2022/08/30 03:22:32;;;;;;;4.55;3.30;;;14.10;99.90;;;;;;5072558;28;20066;-67
2022/08/30 03:25:00;;;;;;;4.57;3.00;;;14.10;99.90;;;;;;5072879;28;20045;-68
2022/08/30 03:27:27;;;;;;;3.72;2.95;;;14.00;99.90;;;;;;5071567;28;20128;-68
2022/08/30 03:29:53;;;;;;;3.55;2.90;;;14.10;99.90;;;;;;5072528;28;20048;-68
2022/08/30 03:32:19;;;;;;;3.53;3.03;;;14.00;99.90;;;;;;5072578;28;20467;-68
2022/08/30 03:34:44;;;;;;;4.93;3.47;;;14.10;99.90;;;;;;5072505;28;20056;-68
2022/08/30 03:37:10;;;;;;;3.85;3.33;;;14.00;99.90;;;;;;5073181;28;20040;-68
2022/08/30 03:39:36;;;;;;;4.38;3.20;;;14.00;99.90;;;;;;5072376;28;20366;-68
2022/08/30 03:42:02;;;;;;;3.95;3.10;;;14.00;99.90;;;;;;5073000;28;20051;-68
2022/08/30 03:44:27;;;;;;;3.95;3.42;;;13.90;99.90;;;;;;5072893;28;20124;-68
2022/08/30 03:46:53;;;;;;;4.95;3.30;;;13.90;99.90;;;;;;5073037;28;20098;-68
2022/08/30 03:49:19;;;;;;;5.00;3.50;;;13.90;99.90;;;;;;5072885;28;20546;-68
2022/08/30 03:51:46;;;;;;;4.68;3.40;;;13.80;99.90;;;;;;5072037;28;20388;-68
2022/08/30 03:54:12;;;;;;;4.85;3.50;;;13.80;99.90;;;;;;5072881;28;20106;-68
2022/08/30 03:56:38;;;;;;;5.10;3.50;;;13.70;99.90;;;;;;5071534;28;20040;-68
2022/08/30 03:59:04;;;;;;;5.35;3.75;;;13.70;99.90;;;;;;5071427;28;20036;-68
2022/08/30 04:01:30;;;;;;;4.07;3.40;;;13.60;99.90;;;;;;5071312;28;20094;-67
2022/08/30 04:03:55;;;;;;;4.38;3.53;;;13.60;99.90;;;;;;5072840;28;20059;-67
2022/08/30 04:06:21;;;;;;;4.72;3.63;;;13.50;99.90;;;;;;5071395;28;20125;-68
2022/08/30 04:08:48;;;;;;;6.07;3.67;;;13.50;99.90;;;;;;5072105;28;20041;-69
2022/08/30 04:11:15;;;;;;;4.47;3.70;;;13.50;99.90;;;;;;5072514;28;20037;-67
2022/08/30 04:13:41;;;;;;;4.40;3.20;;;13.50;99.90;;;;;;5071947;28;20045;-68
2022/08/30 04:16:06;;;;;;;4.18;3.38;;;13.40;99.90;;;;;;5071702;28;20596;-68
2022/08/30 04:18:33;;;;;;;4.22;3.42;;;13.40;99.90;;;;;;5072300;28;20046;-68
2022/08/30 04:20:59;;;;;;;6.47;3.83;;;13.40;99.90;;;;;;5070935;28;20063;-67
2022/08/30 04:23:24;;;;;;;4.50;3.53;;;13.40;99.90;;;;;;5072257;28;20041;-68
2022/08/30 04:25:50;;;;;;;4.68;3.58;;;13.40;99.90;;;;;;5070852;28;20098;-68
2022/08/30 04:28:16;;;;;;;5.53;3.60;;;13.40;99.90;;;;;;5071164;28;20127;-67
2022/08/30 04:30:43;;;;;;;4.60;3.63;;;13.40;99.90;;;;;;5071782;28;20040;-67
2022/08/30 04:33:11;;;;;;;4.68;3.30;;;13.30;99.90;;;;;;5072195;28;20040;-67
2022/08/30 04:35:40;;;;;;;5.20;3.70;;;13.30;99.90;;;;;;5071812;28;20042;-68
2022/08/30 04:38:06;;;;;;;5.10;3.90;;;13.30;99.90;;;;;;5071502;28;20080;-68
2022/08/30 04:40:31;;;;;;;5.40;4.10;;;13.20;99.90;;;;;;5071099;28;20432;-68
2022/08/30 04:42:59;;;;;;;4.70;3.90;;;13.20;99.90;;;;;;5071776;28;20105;-68
2022/08/30 04:45:24;;;;;;;4.90;4.00;;;13.10;99.90;;;;;;5071777;28;20048;-68
2022/08/30 04:47:50;;;;;;;4.88;4.38;;;13.10;99.90;;;;;;5071743;28;20051;-68
2022/08/30 04:50:18;;;;;;;4.82;3.83;;;13.00;99.90;;;;;;5071724;28;20036;-68
2022/08/30 04:52:44;;;;;;;8.63;4.20;;;13.00;99.90;;;;;;5071979;28;20048;-68
2022/08/30 04:55:11;;;;;;;4.60;3.70;;;13.00;99.90;;;;;;5070462;28;20139;-68
2022/08/30 04:57:39;;;;;;;5.13;3.90;;;12.90;99.90;;;;;;5071587;28;20037;-68
2022/08/30 05:00:11;;;;;;;5.18;4.57;;;12.90;99.90;;;;;;5071651;28;20397;-67
2022/08/30 05:02:38;;;;;;;5.25;4.10;;;12.80;99.90;;;;;;5071742;28;20389;-67
2022/08/30 05:07:48;;;;;;;6.05;3.88;;;12.70;99.90;;;;;;5071626;28;20098;-68
2022/08/30 05:10:14;;;;;;;4.50;4.00;;;12.80;99.90;;;;;;5071006;28;20051;-67
2022/08/30 05:12:40;;;;;;;4.70;3.70;;;12.80;99.90;;;;;;5071807;28;20036;-68
2022/08/30 05:15:06;;;;;;;5.40;3.95;;;12.80;99.90;;;;;;5071538;28;20044;-67
2022/08/30 05:17:32;;;;;;;4.85;4.15;;;12.80;99.90;;;;;;5070949;28;20115;-67
2022/08/30 05:20:00;;;;;;;5.07;3.70;;;12.80;99.90;;;;;;5071269;28;20119;-68
2022/08/30 05:22:26;;;;;;;4.65;3.72;;;12.80;99.90;;;;;;5071504;28;20049;-68
2022/08/30 05:24:52;;;;;;;4.20;3.75;;;12.80;99.90;;;;;;5070217;28;20124;-67
2022/08/30 05:27:18;;;;;;;4.22;3.83;;;12.80;99.90;;;;;;5069449;28;20053;-67
2022/08/30 05:29:43;;;;;;;4.47;3.53;;;12.90;99.90;;;;;;5071210;28;20462;-67
2022/08/30 05:32:09;;;;;;;5.05;3.67;;;13.00;99.90;;;;;;5071091;28;20044;-68
2022/08/30 05:34:35;;;;;;;4.70;3.50;;;13.00;99.90;;;;;;5071157;28;20048;-69
2022/08/30 05:37:01;;;;;;;4.28;3.58;;;13.10;99.90;;;;;;5071215;28;20040;-67
2022/08/30 05:39:28;;;;;;;5.03;3.85;;;13.10;99.90;;;;;;5069869;28;20170;-68
2022/08/30 05:41:58;;;;;;;4.82;3.65;;;13.10;99.90;;;;;;5071151;28;20103;-68
2022/08/30 05:44:24;;;;;;;4.78;3.33;;;13.20;99.90;;;;;;5071253;28;20037;-68
2022/08/30 05:46:50;;;;;;;5.25;4.03;;;13.20;99.90;;;;;;5069736;28;20373;-68
2022/08/30 05:49:16;;;;;;;5.47;3.42;;;13.20;99.90;;;;;;5071092;28;20055;-68
2022/08/30 05:51:42;;;;;;;5.20;3.50;;;13.30;99.90;;;;;;5071418;28;20174;-68
2022/08/30 05:54:07;;;;;;;5.15;3.70;;;13.40;99.90;;;;;;5071151;28;20140;-67
2022/08/30 05:56:36;;;;;;;5.18;3.72;;;13.40;99.90;;;;;;5069618;28;20045;-67
2022/08/30 05:59:05;;;;;;;4.07;3.42;;;13.50;99.90;;;;;;5070996;28;20044;-68
2022/08/30 06:01:37;;;;;;;6.47;3.75;;;13.60;99.90;;;;;;5070959;28;20083;-68
2022/08/30 06:04:04;;;;;;;4.30;3.38;;;13.70;99.90;;;;;;5071102;28;20178;-68
2022/08/30 06:06:32;;;;;;;4.93;3.80;;;13.80;99.90;;;;;;5070852;28;20043;-68
2022/08/30 06:08:57;;;;;;;4.75;3.65;;;13.80;99.90;;;;;;5070435;28;20052;-68
2022/08/30 06:11:24;;;;;;;5.40;4.03;;;13.90;99.90;;;;;;5053036;28;20044;-68
2022/08/30 06:13:51;;;;;;;5.07;3.65;;;14.00;99.90;;;;;;5069796;28;20036;-62
2022/08/30 06:16:19;;;;;;;5.30;3.35;;;14.10;99.90;;;;;;5070671;28;20048;-62
2022/08/30 06:18:46;;;;;;;5.03;3.47;;;14.20;99.90;;;;;;5070904;28;20070;-62
2022/08/30 06:21:20;;;;;;;5.60;3.40;;;14.20;99.90;;;;;;5070738;28;20090;-61
2022/08/30 06:23:46;;;;;;;4.07;3.00;;;14.40;99.90;;;;;;5069798;28;20044;-62
2022/08/30 06:26:12;;;;;;;5.53;3.42;;;14.50;99.90;;;;;;5070753;28;20047;-62
2022/08/30 06:28:38;;;;;;;5.07;3.28;;;14.60;99.90;;;;;;5070468;28;20041;-62
2022/08/30 06:31:08;;;;;;;4.88;3.33;;;14.70;99.90;;;;;;5070927;28;20132;-62
2022/08/30 06:33:35;;;;;;;4.05;3.30;;;14.80;99.90;;;;;;5070532;28;20056;-63
2022/08/30 06:36:05;;;;;;;4.00;3.25;;;14.90;99.90;;;;;;5070400;28;20076;-61
2022/08/30 06:38:31;;;;;;;4.82;3.30;;;15.00;99.90;;;;;;5072805;28;20040;-62
2022/08/30 06:40:57;;;;;;;3.55;3.13;;;15.10;99.90;;;;;;5073608;28;20041;-62
2022/08/30 06:43:23;;;;;;;4.60;2.72;;;15.30;99.90;;;;;;5073201;28;20106;-62
2022/08/30 06:45:49;;;;;;;3.50;2.47;;;15.30;99.90;;;;;;5074104;28;20036;-62
2022/08/30 06:48:14;;;;;;;4.63;2.53;;;15.40;99.90;;;;;;5074009;28;20070;-61
2022/08/30 06:50:43;;;;;;;3.47;2.30;;;15.60;99.90;;;;;;5074023;28;20093;-61
2022/08/30 06:53:09;;;;;;;3.00;2.50;;;15.70;99.90;;;;;;5073936;28;20048;-61
2022/08/30 06:55:35;;;;;;;3.08;2.10;;;15.80;99.90;;;;;;5073940;28;20059;-61
2022/08/30 06:58:02;;;;;;;3.55;2.22;;;15.90;99.90;;;;;;5073895;28;20041;-62
2022/08/30 07:00:28;;;;;;;2.80;1.92;;;16.00;99.90;;;;;;5073925;28;20037;-61
2022/08/30 07:02:53;;;;;;;3.30;1.90;;;16.30;99.90;;;;;;5073871;28;20094;-61
2022/08/30 07:05:22;;;;;;;4.05;2.03;;;16.20;99.90;;;;;;5073845;28;20040;-62
2022/08/30 07:07:49;;;;;;;2.58;1.60;;;16.40;99.90;;;;;;5073678;28;20389;-62
2022/08/30 07:10:15;;;;;;;2.67;1.50;;;16.50;99.90;;;;;;5073122;28;20190;-62
2022/08/30 07:12:40;;;;;;;4.47;1.77;;;16.60;99.90;;;;;;5067270;28;20103;-62
2022/08/30 07:15:07;;;;;;;3.13;1.50;;;16.70;99.90;;;;;;5062782;28;20116;-63
2022/08/30 07:20:19;;;;;;;2.30;1.60;;;16.90;99.90;;;;;;5057158;28;20500;-62
2022/08/30 07:22:46;;;;;;;3.47;1.42;;;17.00;99.90;;;;;;5073066;28;20059;-63
2022/08/30 07:25:12;;;;;;;3.42;1.77;;;17.10;99.90;;;;;;5068519;28;20048;-62
2022/08/30 07:27:38;;;;;;;4.20;1.50;;;17.20;99.90;;;;;;5052607;28;20079;-62
2022/08/30 07:30:06;;;;;;;2.22;1.40;;;17.30;99.90;;;;;;5053698;28;20060;-64
2022/08/30 07:32:31;;;;;;;3.50;1.10;;;17.40;99.90;;;;;;5055416;28;20072;-63
2022/08/30 07:34:58;;;;;;;2.40;1.30;;;17.40;99.90;;;;;;5072346;28;20087;-62
2022/08/30 07:37:24;;;;;;;2.95;1.40;;;17.50;99.90;;;;;;5071827;28;20098;-62
2022/08/30 07:39:50;;;;;;;3.25;1.20;;;17.60;99.90;;;;;;5072183;28;20491;-61
2022/08/30 07:42:16;;;;;;;1.92;1.20;;;17.70;99.90;;;;;;5072501;28;20053;-63
2022/08/30 07:44:42;;;;;;;2.45;1.20;;;17.70;99.90;;;;;;5072695;28;20438;-63
2022/08/30 07:47:08;;;;;;;2.15;1.00;;;17.90;99.90;;;;;;5071007;28;20047;-63
2022/08/30 07:49:35;;;;;;;1.70;1.00;;;17.90;99.90;;;;;;5069755;28;20044;-62
2022/08/30 07:52:01;;;;;;;1.88;1.00;;;18.00;99.90;;;;;;5071729;28;20040;-62
2022/08/30 07:54:27;;;;;;;3.08;1.10;;;18.10;99.90;;;;;;5072379;28;20111;-62
2022/08/30 07:56:54;;;;;;;2.30;1.00;;;18.10;99.90;;;;;;5072361;28;20055;-62
2022/08/30 07:59:21;;;;;;;2.13;1.10;;;18.20;99.90;;;;;;5072458;28;20049;-62
2022/08/30 08:01:46;;;;;;;3.13;1.73;;;18.30;99.90;;;;;;5071236;28;20130;-63
2022/08/30 08:04:12;;;;;;;3.75;1.30;;;18.30;99.90;;;;;;5071876;28;20131;-62
2022/08/30 08:06:39;;;;;;;3.10;1.08;;;18.30;99.90;;;;;;5072179;28;20041;-63
2022/08/30 08:09:05;;;;;;;3.35;1.08;;;18.40;99.90;;;;;;5070948;28;20118;-64
2022/08/30 08:11:33;;;;;;;2.72;1.02;;;18.50;99.90;;;;;;5072067;28;20377;-61
2022/08/30 08:13:59;;;;;;;2.53;1.20;;;18.50;99.90;;;;;;5071848;28;20084;-62
2022/08/30 08:16:27;;;;;;;2.33;1.10;;;18.60;99.90;;;;;;5072180;28;20122;-63
2022/08/30 08:18:54;;;;;;;1.83;0.95;;;18.70;99.90;;;;;;5071873;28;20040;-62
2022/08/30 08:21:21;;;;;;;3.05;1.13;;;18.70;99.90;;;;;;5072080;28;20052;-63
2022/08/30 08:23:46;;;;;;;2.45;0.90;;;18.80;99.90;;;;;;5070549;28;20048;-62
2022/08/30 08:26:13;;;;;;;3.15;1.02;;;18.90;99.90;;;;;;5069698;28;20125;-63
2022/08/30 08:28:38;;;;;;;2.60;0.80;;;18.90;99.90;;;;;;5070709;28;20090;-62
2022/08/30 08:31:13;;;;;;;3.13;0.80;;;18.90;99.90;;;;;;5070666;28;20048;-62
2022/08/30 08:33:39;;;;;;;1.85;0.90;;;19.10;99.90;;;;;;5071582;28;20047;-62
2022/08/30 08:36:05;;;;;;;2.17;0.88;;;19.10;99.90;;;;;;5084406;28;20119;-62
2022/08/30 08:38:31;;;;;;;2.60;1.00;;;19.20;99.90;;;;;;5091421;28;20036;-62
2022/08/30 08:41:25;;;;;;;2.42;0.90;;;19.30;99.90;;;;;;5090205;28;20044;-63
2022/08/30 08:43:50;;;;;;;1.75;0.95;;;19.40;99.90;;;;;;5091086;28;20043;-63
2022/08/30 08:46:32;;;;;;;1.90;0.70;;;19.50;99.90;;;;;;5090973;28;20040;-62
2022/08/30 08:49:03;;;;;;;3.55;0.90;;;19.60;99.90;;;;;;5090323;28;20055;-62
2022/08/30 08:54:26;;;;;;;2.38;0.90;;;19.70;99.90;;;;;;5071164;28;20059;-63
2022/08/30 08:56:53;;;;;;;2.85;0.80;;;19.80;99.90;;;;;;5071238;28;20132;-63
2022/08/30 08:59:18;;;;;;;3.90;0.80;;;19.90;99.90;;;;;;5071503;28;20040;-64
2022/08/30 09:01:46;;;;;;;1.88;0.70;;;20.00;99.90;;;;;;5069803;28;20104;-62
2022/08/30 09:04:16;;;;;;;2.22;0.60;;;20.00;99.90;;;;;;5070624;28;20054;-63
2022/08/30 09:06:51;;;;;;;1.85;0.80;;;20.10;99.90;;;;;;5071117;28;20460;-63
2022/08/30 09:09:28;;;;;;;2.40;0.90;;;20.20;99.90;;;;;;5070791;28;20117;-63
2022/08/30 09:11:54;;;;;;;1.73;0.70;;;20.20;99.90;;;;;;5070913;28;20044;-62
2022/08/30 09:14:28;;;;;;;2.58;0.90;;;20.30;99.90;;;;;;5071038;28;20538;-62
2022/08/30 09:17:03;;;;;;;1.98;0.70;;;20.30;99.90;;;;;;5071070;28;20511;-63
2022/08/30 09:19:36;;;;;;;2.00;0.75;;;20.30;99.90;;;;;;5070780;28;20080;-62
2022/08/30 09:22:25;;;;;;;1.30;0.70;;;20.30;99.90;;;;;;5071257;28;20052;-63
2022/08/30 09:25:01;;;;;;;1.17;0.70;;;20.40;99.90;;;;;;5070437;28;20044;-63
2022/08/30 09:27:32;;;;;;;1.83;0.90;;;20.50;99.90;;;;;;5069673;28;20135;-63
2022/08/30 09:30:01;;;;;;;1.63;0.75;;;20.60;99.90;;;;;;5068086;28;20039;-63
2022/08/30 09:32:43;;;;;;;1.38;0.70;;;20.70;99.90;;;;;;5069305;28;20044;-63
2022/08/30 09:35:34;;;;;;;1.25;0.75;;;20.90;99.90;;;;;;5070484;28;20052;-63
2022/08/30 09:38:09;;;;;;;1.92;0.65;;;20.90;99.90;;;;;;5071168;28;20090;-63
2022/08/30 09:40:47;;;;;;;2.75;0.80;;;21.00;99.90;;;;;;5070120;28;20051;-63
2022/08/30 09:43:16;;;;;;;1.35;0.68;;;21.10;99.90;;;;;;5069730;28;20052;-63
2022/08/30 09:46:00;;;;;;;1.25;0.60;;;21.20;99.90;;;;;;5070230;28;20392;-63
2022/08/30 09:48:25;;;;;;;1.42;0.70;;;21.20;99.90;;;;;;5082177;28;20131;-62
2022/08/30 09:51:09;;;;;;;1.30;0.60;;;21.20;99.90;;;;;;5090970;28;20127;-62
2022/08/30 09:53:42;;;;;;;1.73;0.70;;;21.20;99.90;;;;;;5078274;28;20044;-62
2022/08/30 09:56:48;;;;;;;2.85;0.73;;;21.20;99.90;;;;;;5062260;28;20057;-62
2022/08/30 09:59:36;;;;;;;2.70;0.80;;;21.30;99.90;;;;;;5067104;28;20076;-62
2022/08/30 10:02:34;;;;;;;2.92;0.70;;;21.40;99.90;;;;;;5070051;28;20083;-64
2022/08/30 10:05:21;;;;;;;1.50;0.60;;;21.40;99.90;;;;;;5050524;28;20045;-62
2022/08/30 10:08:00;;;;;;;1.20;0.70;;;21.20;99.90;;;;;;5050379;28;20481;-63
2022/08/30 10:10:30;;;;;;;1.98;0.80;;;21.20;99.90;;;;;;5050326;28;20056;-62
2022/08/30 10:13:22;;;;;;;1.95;0.75;;;21.20;99.90;;;;;;5055691;28;20060;-63
2022/08/30 10:15:52;;;;;;;1.27;0.77;;;21.20;99.90;;;;;;5054191;28;20415;-63
2022/08/30 10:18:30;;;;;;;1.40;0.73;;;21.20;99.90;;;;;;5053855;28;20045;-62
2022/08/30 10:21:07;;;;;;;1.23;0.50;;;21.10;99.90;;;;;;5062929;28;20036;-62
2022/08/30 10:23:40;;;;;;;1.67;0.70;;;21.00;99.90;;;;;;5073974;28;20055;-62
2022/08/30 10:26:17;;;;;;;1.42;0.80;;;21.00;99.90;;;;;;5074480;28;20553;-62
2022/08/30 10:28:55;;;;;;;2.28;0.70;;;21.10;99.90;;;;;;5074218;28;20558;-63
2022/08/30 10:31:29;;;;;;;2.47;0.70;;;21.20;99.90;;;;;;5073757;28;20051;-62
2022/08/30 10:34:01;;;;;;;1.50;0.60;;;21.30;99.90;;;;;;5074033;28;20048;-62
2022/08/30 10:36:32;;;;;;;1.55;0.77;;;21.30;99.90;;;;;;5074080;28;20048;-64
2022/08/30 10:39:00;;;;;;;2.78;0.88;;;21.30;99.90;;;;;;5073747;28;20052;-69
2022/08/30 10:41:28;;;;;;;1.42;0.60;;;21.30;99.90;;;;;;5073617;28;20135;-70
2022/08/30 10:44:17;;;;;;;2.13;0.60;;;21.40;99.90;;;;;;5074209;28;20858;-69
2022/08/30 10:47:03;;;;;;;1.77;0.75;;;21.50;99.90;;;;;;5073123;28;20373;-69
2022/08/30 10:49:40;;;;;;;2.17;0.63;;;21.50;99.90;;;;;;5073017;28;20044;-68
2022/08/30 10:52:18;;;;;;;1.40;0.50;;;21.40;99.90;;;;;;5073485;28;20152;-69
2022/08/30 10:55:13;;;;;;;1.70;0.80;;;21.40;99.90;;;;;;5073870;28;20052;-69
2022/08/30 10:57:39;;;;;;;1.33;0.60;;;21.40;99.90;;;;;;5073881;28;20086;-70
2022/08/30 11:00:09;;;;;;;2.15;0.75;;;21.30;99.90;;;;;;5073506;28;20056;-69
2022/08/30 11:03:23;;;;;;;1.38;0.63;;;21.40;99.90;;;;;;5078386;28;20454;-68
2022/08/30 11:06:18;;;;;;;2.03;0.55;;;21.50;99.90;;;;;;5071199;28;20393;-69
2022/08/30 11:09:17;;;;;;;1.63;0.60;;;21.70;99.90;;;;;;5069705;28;20044;-63
2022/08/30 11:12:31;;;;;;;2.60;0.82;;;21.70;99.90;;;;;;5053729;28;20512;-64
2022/08/30 11:14:58;;;;;;;4.60;0.80;;;21.80;99.90;;;;;;5032187;28;20053;-64
2022/08/30 11:17:30;;;;;;;1.70;0.80;;;21.80;99.90;;;;;;5067776;28;20373;-62
2022/08/30 11:19:59;;;;;;;2.03;0.80;;;21.90;99.90;;;;;;5063499;28;20546;-62
2022/08/30 11:22:35;;;;;;;1.50;0.55;;;21.80;99.90;;;;;;5063454;28;20037;-63
2022/08/30 11:25:11;;;;;;;2.50;0.90;;;21.70;99.90;;;;;;5072907;28;20036;-62
2022/08/30 11:27:45;;;;;;;1.48;0.70;;;21.70;99.90;;;;;;5073088;28;20396;-62
2022/08/30 11:30:23;;;;;;;1.40;0.50;;;21.90;99.90;;;;;;5069526;28;20044;-62
2022/08/30 11:33:29;;;;;;;2.03;0.68;;;22.00;99.90;;;;;;5070218;28;20110;-62
2022/08/30 11:35:55;;;;;;;2.00;0.50;;;21.90;99.90;;;;;;5058044;28;20052;-63
2022/08/30 11:38:24;;;;;;;1.48;0.80;;;21.90;99.90;;;;;;5060748;28;20044;-63
2022/08/30 11:40:57;;;;;;;1.80;0.60;;;21.90;99.90;;;;;;5052050;28;20132;-63
2022/08/30 11:43:36;;;;;;;1.15;0.50;;;22.00;99.90;;;;;;5065171;28;20041;-63
2022/08/30 11:46:32;;;;;;;1.70;0.70;;;22.10;99.90;;;;;;5069975;28;20052;-64
2022/08/30 11:49:04;;;;;;;0.70;0.40;;;22.20;99.90;;;;;;5072500;28;20055;-63
2022/08/30 11:52:03;;;;;;;2.17;0.55;;;22.30;99.90;;;;;;5072100;28;20041;-63
2022/08/30 11:54:48;;;;;;;1.15;0.47;;;22.20;99.90;;;;;;5066096;28;20056;-64
2022/08/30 11:57:24;;;;;;;2.80;0.65;;;22.30;99.90;;;;;;5071676;28;20504;-63
2022/08/30 12:00:08;;;;;;;1.80;0.70;;;22.40;99.90;;;;;;5072619;28;20040;-63
2022/08/30 12:02:57;;;;;;;1.80;0.70;;;22.40;99.90;;;;;;5071169;28;20080;-63
2022/08/30 12:05:38;;;;;;;1.88;0.60;;;22.30;99.90;;;;;;5072086;28;20045;-64
2022/08/30 12:08:06;;;;;;;1.20;0.50;;;22.20;99.90;;;;;;5070941;28;20071;-64
2022/08/30 12:10:46;;;;;;;1.48;0.60;;;22.10;99.90;;;;;;5071542;28;20067;-64
2022/08/30 12:13:36;;;;;;;2.30;0.65;;;22.20;99.90;;;;;;5072224;28;20041;-63
2022/08/30 12:16:05;;;;;;;1.65;0.60;;;22.10;99.90;;;;;;5070378;28;20162;-63
2022/08/30 12:18:56;;;;;;;1.45;0.70;;;22.10;99.90;;;;;;5072203;28;20040;-65
2022/08/30 12:21:23;;;;;;;1.85;0.70;;;22.30;99.90;;;;;;5071392;28;20055;-64
2022/08/30 12:24:10;;;;;;;1.15;0.52;;;22.20;99.90;;;;;;5071682;28;20508;-65
2022/08/30 12:26:39;;;;;;;1.88;0.50;;;22.10;99.90;;;;;;5067014;28;20040;-65
2022/08/30 12:29:10;;;;;;;1.30;0.50;;;22.30;99.90;;;;;;5070163;28;20060;-64
2022/08/30 12:31:47;;;;;;;1.23;0.63;;;22.40;99.90;;;;;;5071680;28;20051;-64
2022/08/30 12:34:29;;;;;;;2.05;0.85;;;22.50;99.90;;;;;;5071955;28;20080;-64
2022/08/30 12:36:57;;;;;;;1.50;0.65;;;22.60;99.90;;;;;;5070400;28;20524;-64
2022/08/30 12:39:36;;;;;;;1.98;0.73;;;22.50;99.90;;;;;;5071109;28;20548;-64
2022/08/30 12:42:21;;;;;;;2.00;0.70;;;22.50;99.90;;;;;;5071486;28;20119;-63
2022/08/30 12:44:49;;;;;;;1.80;0.60;;;22.40;99.90;;;;;;5071326;28;20087;-65
2022/08/30 12:47:24;;;;;;;1.15;0.50;;;22.50;99.90;;;;;;5070975;28;20071;-65
2022/08/30 12:49:51;;;;;;;1.30;0.60;;;22.50;99.90;;;;;;5071253;28;20044;-66
2022/08/30 12:52:33;;;;;;;1.13;0.50;;;22.50;99.90;;;;;;5071306;28;20036;-65
2022/08/30 12:55:29;;;;;;;1.10;0.50;;;22.60;99.90;;;;;;5070549;28;20114;-66
2022/08/30 12:58:00;;;;;;;0.73;0.50;;;22.60;99.90;;;;;;5070387;28;20131;-65
2022/08/30 13:00:31;;;;;;;1.52;0.52;;;22.40;99.90;;;;;;5070378;28;20052;-65
2022/08/30 13:03:21;;;;;;;3.72;0.60;;;22.20;99.90;;;;;;5070592;28;20090;-64
2022/08/30 13:05:48;;;;;;;1.20;0.55;;;22.10;99.90;;;;;;5069954;28;20102;-65
2022/08/30 13:08:35;;;;;;;1.60;0.50;;;21.90;99.90;;;;;;5069073;28;20358;-64
2022/08/30 13:11:05;;;;;;;1.25;0.68;;;21.80;99.90;;;;;;5068802;28;20484;-64
2022/08/30 13:13:41;;;;;;;2.22;0.65;;;21.70;99.90;;;;;;5069758;28;20551;-64